sensor_id;sensor_type;location;lat;lon;timestamp;pressure;altitude;pressure_sealevel;temperature;humidity
11038;BME280;5572;49.540;11.932;2023-01-27T00:00:10;95941.72;;;-0.76;100.00
11038;BME280;5572;49.540;11.932;2023-01-27T00:02:38;95933.06;;;-0.72;100.00
11038;BME280;5572;49.540;11.932;2023-01-27T00:05:05;95938.00;;;-0.64;100.00
11038;BME280;5572;49.540;11.932;2023-01-27T00:07:32;95943.31;;;-0.64;100.00
11038;BME280;5572;49.540;11.932;2023-01-27T00:09:59;95942.25;;;-0.63;100.00
11038;BME280;5572;49.540;11.932;2023-01-27T00:12:27;95950.44;;;-0.64;100.00
11038;BME280;5572;49.540;11.932;2023-01-27T00:15:18;95941.47;;;-0.75;100.00
11038;BME280;5572;49.540;11.932;2023-01-27T00:17:48;95962.91;;;-0.65;100.00
11038;BME280;5572;49.540;11.932;2023-01-27T00:20:15;95952.34;;;-0.76;100.00
11038;BME280;5572;49.540;11.932;2023-01-27T00:23:04;95959.69;;;-0.67;100.00
11038;BME280;5572;49.540;11.932;2023-01-27T00:25:48;95947.56;;;-0.74;100.00
11038;BME280;5572;49.540;11.932;2023-01-27T00:28:23;95951.31;;;-0.75;100.00
11038;BME280;5572;49.540;11.932;2023-01-27T00:30:50;95945.50;;;-0.72;100.00
11038;BME280;5572;49.540;11.932;2023-01-27T00:33:17;95951.97;;;-0.68;100.00
11038;BME280;5572;49.540;11.932;2023-01-27T00:35:58;95939.88;;;-0.76;100.00
11038;BME280;5572;49.540;11.932;2023-01-27T00:38:26;95932.72;;;-0.75;100.00
11038;BME280;5572;49.540;11.932;2023-01-27T00:40:56;95943.34;;;-0.75;100.00
11038;BME280;5572;49.540;11.932;2023-01-27T00:43:46;95937.13;;;-0.81;100.00
11038;BME280;5572;49.540;11.932;2023-01-27T00:46:15;95957.59;;;-0.65;100.00
11038;BME280;5572;49.540;11.932;2023-01-27T00:48:42;95935.47;;;-0.70;100.00
11038;BME280;5572;49.540;11.932;2023-01-27T00:51:09;95924.53;;;-0.74;100.00
11038;BME280;5572;49.540;11.932;2023-01-27T00:53:36;95946.03;;;-0.59;100.00
11038;BME280;5572;49.540;11.932;2023-01-27T00:56:03;95929.38;;;-0.71;100.00
11038;BME280;5572;49.540;11.932;2023-01-27T00:58:30;95941.94;;;-0.66;100.00
11038;BME280;5572;49.540;11.932;2023-01-27T01:00:59;95948.94;;;-0.60;100.00
11038;BME280;5572;49.540;11.932;2023-01-27T01:03:27;95938.91;;;-0.58;100.00
11038;BME280;5572;49.540;11.932;2023-01-27T01:05:55;95939.38;;;-0.61;100.00
11038;BME280;5572;49.540;11.932;2023-01-27T01:08:22;95946.31;;;-0.72;100.00
11038;BME280;5572;49.540;11.932;2023-01-27T01:10:49;95943.06;;;-0.62;100.00
11038;BME280;5572;49.540;11.932;2023-01-27T01:13:15;95947.25;;;-0.78;100.00
11038;BME280;5572;49.540;11.932;2023-01-27T01:15:46;95958.19;;;-0.74;100.00
11038;BME280;5572;49.540;11.932;2023-01-27T01:18:15;95947.13;;;-0.71;100.00
11038;BME280;5572;49.540;11.932;2023-01-27T01:20:43;95944.38;;;-0.76;100.00
11038;BME280;5572;49.540;11.932;2023-01-27T01:23:11;95951.06;;;-0.74;100.00
11038;BME280;5572;49.540;11.932;2023-01-27T01:25:39;95947.78;;;-0.64;100.00
11038;BME280;5572;49.540;11.932;2023-01-27T01:28:07;95959.66;;;-0.55;100.00
11038;BME280;5572;49.540;11.932;2023-01-27T01:30:35;95945.72;;;-0.62;100.00
11038;BME280;5572;49.540;11.932;2023-01-27T01:33:02;95949.06;;;-0.67;100.00
11038;BME280;5572;49.540;11.932;2023-01-27T01:35:31;95949.53;;;-0.70;100.00
11038;BME280;5572;49.540;11.932;2023-01-27T01:38:03;95953.38;;;-0.77;100.00
11038;BME280;5572;49.540;11.932;2023-01-27T01:40:29;95946.19;;;-0.65;100.00
11038;BME280;5572;49.540;11.932;2023-01-27T01:42:58;95935.84;;;-0.78;100.00
11038;BME280;5572;49.540;11.932;2023-01-27T01:45:41;95944.72;;;-0.73;100.00
11038;BME280;5572;49.540;11.932;2023-01-27T01:48:10;95937.09;;;-0.69;100.00
11038;BME280;5572;49.540;11.932;2023-01-27T01:50:44;95932.03;;;-0.71;100.00
11038;BME280;5572;49.540;11.932;2023-01-27T01:53:13;95926.03;;;-0.78;100.00
11038;BME280;5572;49.540;11.932;2023-01-27T01:55:41;95933.53;;;-0.75;100.00
11038;BME280;5572;49.540;11.932;2023-01-27T01:58:09;95922.66;;;-0.73;100.00
11038;BME280;5572;49.540;11.932;2023-01-27T02:00:41;95911.72;;;-0.65;100.00
11038;BME280;5572;49.540;11.932;2023-01-27T02:03:08;95902.41;;;-0.79;100.00
11038;BME280;5572;49.540;11.932;2023-01-27T02:05:39;95906.09;;;-0.80;100.00
11038;BME280;5572;49.540;11.932;2023-01-27T02:08:12;95899.41;;;-0.83;100.00
11038;BME280;5572;49.540;11.932;2023-01-27T02:10:43;95914.16;;;-0.75;100.00
11038;BME280;5572;49.540;11.932;2023-01-27T02:13:13;95902.41;;;-0.79;100.00
11038;BME280;5572;49.540;11.932;2023-01-27T02:15:40;95900.06;;;-0.76;100.00
11038;BME280;5572;49.540;11.932;2023-01-27T02:18:07;95893.28;;;-0.72;100.00
11038;BME280;5572;49.540;11.932;2023-01-27T02:20:39;95897.88;;;-0.67;100.00
11038;BME280;5572;49.540;11.932;2023-01-27T02:23:20;95892.22;;;-0.71;100.00
11038;BME280;5572;49.540;11.932;2023-01-27T02:25:54;95898.78;;;-0.73;100.00
11038;BME280;5572;49.540;11.932;2023-01-27T02:28:25;95911.25;;;-0.74;100.00
11038;BME280;5572;49.540;11.932;2023-01-27T02:30:55;95907.78;;;-0.74;100.00
11038;BME280;5572;49.540;11.932;2023-01-27T02:33:23;95889.78;;;-0.72;100.00
11038;BME280;5572;49.540;11.932;2023-01-27T02:35:57;95890.28;;;-0.75;100.00
11038;BME280;5572;49.540;11.932;2023-01-27T02:38:29;95894.63;;;-0.69;100.00
11038;BME280;5572;49.540;11.932;2023-01-27T02:41:02;95884.50;;;-0.72;100.00
11038;BME280;5572;49.540;11.932;2023-01-27T02:43:30;95884.78;;;-0.85;100.00
11038;BME280;5572;49.540;11.932;2023-01-27T02:45:58;95899.41;;;-0.83;100.00
11038;BME280;5572;49.540;11.932;2023-01-27T02:48:25;95885.38;;;-0.94;100.00
11038;BME280;5572;49.540;11.932;2023-01-27T02:50:51;95901.25;;;-0.83;100.00
11038;BME280;5572;49.540;11.932;2023-01-27T02:53:18;95894.53;;;-0.74;100.00
11038;BME280;5572;49.540;11.932;2023-01-27T02:55:44;95875.22;;;-0.86;100.00
11038;BME280;5572;49.540;11.932;2023-01-27T02:58:15;95891.84;;;-0.90;100.00
11038;BME280;5572;49.540;11.932;2023-01-27T03:00:42;95884.16;;;-0.76;100.00
11038;BME280;5572;49.540;11.932;2023-01-27T03:03:08;95878.84;;;-0.76;100.00
11038;BME280;5572;49.540;11.932;2023-01-27T03:05:35;95873.81;;;-0.88;100.00
11038;BME280;5572;49.540;11.932;2023-01-27T03:08:02;95879.94;;;-0.88;100.00
11038;BME280;5572;49.540;11.932;2023-01-27T03:10:29;95882.94;;;-0.85;100.00
11038;BME280;5572;49.540;11.932;2023-01-27T03:12:55;95873.47;;;-0.92;100.00
11038;BME280;5572;49.540;11.932;2023-01-27T03:15:23;95883.84;;;-0.79;100.00
11038;BME280;5572;49.540;11.932;2023-01-27T03:18:09;95873.69;;;-0.82;100.00
11038;BME280;5572;49.540;11.932;2023-01-27T03:20:41;95863.00;;;-0.87;100.00
11038;BME280;5572;49.540;11.932;2023-01-27T03:23:08;95873.69;;;-0.82;100.00
11038;BME280;5572;49.540;11.932;2023-01-27T03:25:35;95868.28;;;-0.87;100.00
11038;BME280;5572;49.540;11.932;2023-01-27T03:28:05;95870.00;;;-0.81;100.00
11038;BME280;5572;49.540;11.932;2023-01-27T03:30:33;95856.97;;;-0.83;100.00
11038;BME280;5572;49.540;11.932;2023-01-27T03:33:00;95861.94;;;-0.86;100.00
11038;BME280;5572;49.540;11.932;2023-01-27T03:35:27;95882.13;;;-0.85;100.00
11038;BME280;5572;49.540;11.932;2023-01-27T03:37:58;95887.63;;;-0.75;100.00
11038;BME280;5572;49.540;11.932;2023-01-27T03:40:43;95870.13;;;-0.88;100.00
11038;BME280;5572;49.540;11.932;2023-01-27T03:43:26;95876.44;;;-0.77;100.00
11038;BME280;5572;49.540;11.932;2023-01-27T03:46:12;95863.91;;;-0.82;100.00
11038;BME280;5572;49.540;11.932;2023-01-27T03:48:47;95857.56;;;-0.81;100.00
11038;BME280;5572;49.540;11.932;2023-01-27T03:51:15;95850.97;;;-0.89;100.00
11038;BME280;5572;49.540;11.932;2023-01-27T03:53:42;95868.06;;;-0.86;100.00
11038;BME280;5572;49.540;11.932;2023-01-27T03:56:12;95869.91;;;-0.86;100.00
11038;BME280;5572;49.540;11.932;2023-01-27T03:58:39;95872.31;;;-0.85;100.00
11038;BME280;5572;49.540;11.932;2023-01-27T04:01:13;95865.97;;;-0.84;100.00
11038;BME280;5572;49.540;11.932;2023-01-27T04:03:40;95860.66;;;-0.84;100.00
11038;BME280;5572;49.540;11.932;2023-01-27T04:06:26;95852.38;;;-0.87;100.00
11038;BME280;5572;49.540;11.932;2023-01-27T04:09:12;95866.75;;;-0.83;100.00
11038;BME280;5572;49.540;11.932;2023-01-27T04:11:39;95847.09;;;-0.98;100.00
11038;BME280;5572;49.540;11.932;2023-01-27T04:14:24;95853.88;;;-0.91;100.00
11038;BME280;5572;49.540;11.932;2023-01-27T04:16:53;95852.75;;;-0.95;100.00
11038;BME280;5572;49.540;11.932;2023-01-27T04:19:23;95848.72;;;-0.97;100.00
11038;BME280;5572;49.540;11.932;2023-01-27T04:21:50;95864.75;;;-0.92;100.00
11038;BME280;5572;49.540;11.932;2023-01-27T04:24:17;95877.63;;;-0.85;100.00
11038;BME280;5572;49.540;11.932;2023-01-27T04:26:49;95872.66;;;-0.81;100.00
11038;BME280;5572;49.540;11.932;2023-01-27T04:29:17;95868.06;;;-0.86;100.00
11038;BME280;5572;49.540;11.932;2023-01-27T04:31:43;95871.34;;;-0.79;100.00
11038;BME280;5572;49.540;11.932;2023-01-27T04:34:12;95854.53;;;-0.84;100.00
11038;BME280;5572;49.540;11.932;2023-01-27T04:36:41;95854.00;;;-0.97;100.00
11038;BME280;5572;49.540;11.932;2023-01-27T04:39:14;95860.47;;;-0.93;100.00
11038;BME280;5572;49.540;11.932;2023-01-27T04:41:41;95868.75;;;-0.90;100.00
11038;BME280;5572;49.540;11.932;2023-01-27T04:44:08;95865.78;;;-0.93;100.00
11038;BME280;5572;49.540;11.932;2023-01-27T04:46:36;95879.47;;;-0.85;100.00
11038;BME280;5572;49.540;11.932;2023-01-27T04:49:03;95894.25;;;-0.89;100.00
11038;BME280;5572;49.540;11.932;2023-01-27T04:51:35;95892.63;;;-0.90;100.00
11038;BME280;5572;49.540;11.932;2023-01-27T04:54:01;95892.28;;;-0.93;100.00
11038;BME280;5572;49.540;11.932;2023-01-27T04:56:30;95893.66;;;-0.91;100.00
11038;BME280;5572;49.540;11.932;2023-01-27T04:58:58;95896.78;;;-0.94;100.00
11038;BME280;5572;49.540;11.932;2023-01-27T05:01:25;95909.00;;;-0.93;100.00
11038;BME280;5572;49.540;11.932;2023-01-27T05:03:52;95905.09;;;-0.90;100.00
11038;BME280;5572;49.540;11.932;2023-01-27T05:06:19;95907.63;;;-0.95;100.00
11038;BME280;5572;49.540;11.932;2023-01-27T05:08:48;95913.38;;;-0.87;100.00
11038;BME280;5572;49.540;11.932;2023-01-27T05:11:14;95905.09;;;-0.90;100.00
11038;BME280;5572;49.540;11.932;2023-01-27T05:13:42;95905.78;;;-0.95;100.00
11038;BME280;5572;49.540;11.932;2023-01-27T05:16:11;95916.41;;;-0.95;100.00
11038;BME280;5572;49.540;11.932;2023-01-27T05:18:40;95927.69;;;-0.88;100.00
11038;BME280;5572;49.540;11.932;2023-01-27T05:21:11;95935.06;;;-0.90;100.00
11038;BME280;5572;49.540;11.932;2023-01-27T05:23:38;95928.06;;;-0.96;100.00
11038;BME280;5572;49.540;11.932;2023-01-27T05:26:11;95939.19;;;-0.94;100.00
11038;BME280;5572;49.540;11.932;2023-01-27T05:28:40;95936.09;;;-0.91;100.00
11038;BME280;5572;49.540;11.932;2023-01-27T05:31:09;95933.91;;;-0.94;100.00
11038;BME280;5572;49.540;11.932;2023-01-27T05:33:36;95938.06;;;-0.98;100.00
11038;BME280;5572;49.540;11.932;2023-01-27T05:36:05;95940.47;;;-0.96;100.00
11038;BME280;5572;49.540;11.932;2023-01-27T05:38:34;95947.16;;;-0.94;100.00
11038;BME280;5572;49.540;11.932;2023-01-27T05:41:03;95961.00;;;-0.92;100.00
11038;BME280;5572;49.540;11.932;2023-01-27T05:43:33;95974.25;;;-0.92;100.00
11038;BME280;5572;49.540;11.932;2023-01-27T05:46:05;95979.56;;;-0.92;100.00
11038;BME280;5572;49.540;11.932;2023-01-27T05:48:34;95967.00;;;-0.96;100.00
11038;BME280;5572;49.540;11.932;2023-01-27T05:51:02;95997.22;;;-0.86;100.00
11038;BME280;5572;49.540;11.932;2023-01-27T05:53:29;96003.31;;;-0.86;100.00
11038;BME280;5572;49.540;11.932;2023-01-27T05:55:57;95995.13;;;-0.95;100.00
11038;BME280;5572;49.540;11.932;2023-01-27T05:58:24;95999.66;;;-0.96;100.00
11038;BME280;5572;49.540;11.932;2023-01-27T06:01:02;96000.19;;;-0.94;100.00
11038;BME280;5572;49.540;11.932;2023-01-27T06:03:31;95996.41;;;-0.98;100.00
11038;BME280;5572;49.540;11.932;2023-01-27T06:05:58;96018.31;;;-0.91;100.00
11038;BME280;5572;49.540;11.932;2023-01-27T06:08:26;95993.75;;;-1.09;100.00
11038;BME280;5572;49.540;11.932;2023-01-27T06:10:53;95994.44;;;-1.02;100.00
11038;BME280;5572;49.540;11.932;2023-01-27T06:13:22;96000.44;;;-1.07;100.00
11038;BME280;5572;49.540;11.932;2023-01-27T06:15:52;95996.41;;;-1.09;100.00
11038;BME280;5572;49.540;11.932;2023-01-27T06:18:23;96004.34;;;-1.09;100.00
11038;BME280;5572;49.540;11.932;2023-01-27T06:20:50;95996.78;;;-1.06;100.00
11038;BME280;5572;49.540;11.932;2023-01-27T06:23:16;95986.72;;;-1.15;100.00
11038;BME280;5572;49.540;11.932;2023-01-27T06:25:45;96013.81;;;-1.13;100.00
11038;BME280;5572;49.540;11.932;2023-01-27T06:28:13;96005.19;;;-1.20;100.00
11038;BME280;5572;49.540;11.932;2023-01-27T06:30:41;96009.66;;;-1.21;100.00
11038;BME280;5572;49.540;11.932;2023-01-27T06:33:08;96031.56;;;-1.25;100.00
11038;BME280;5572;49.540;11.932;2023-01-27T06:35:38;96049.63;;;-1.34;100.00
11038;BME280;5572;49.540;11.932;2023-01-27T06:38:10;96074.50;;;-1.35;100.00
11038;BME280;5572;49.540;11.932;2023-01-27T06:40:40;96085.09;;;-1.35;100.00
11038;BME280;5572;49.540;11.932;2023-01-27T06:43:10;96095.50;;;-1.33;100.00
11038;BME280;5572;49.540;11.932;2023-01-27T06:45:37;96108.41;;;-1.37;100.00
11038;BME280;5572;49.540;11.932;2023-01-27T06:48:05;96119.13;;;-1.32;100.00
11038;BME280;5572;49.540;11.932;2023-01-27T06:50:33;96139.06;;;-1.29;100.00
11038;BME280;5572;49.540;11.932;2023-01-27T06:53:04;96148.59;;;-1.40;100.00
11038;BME280;5572;49.540;11.932;2023-01-27T06:55:32;96166.69;;;-1.37;100.00
11038;BME280;5572;49.540;11.932;2023-01-27T06:58:00;96191.94;;;-1.34;100.00
11038;BME280;5572;49.540;11.932;2023-01-27T07:00:26;96200.97;;;-1.24;100.00
11038;BME280;5572;49.540;11.932;2023-01-27T07:02:53;96208.91;;;-1.24;100.00
11038;BME280;5572;49.540;11.932;2023-01-27T07:05:20;96228.06;;;-1.22;100.00
11038;BME280;5572;49.540;11.932;2023-01-27T07:07:47;96255.94;;;-1.19;100.00
11038;BME280;5572;49.540;11.932;2023-01-27T07:10:16;96269.00;;;-1.18;100.00
11038;BME280;5572;49.540;11.932;2023-01-27T07:12:45;96266.78;;;-1.21;100.00
11038;BME280;5572;49.540;11.932;2023-01-27T07:15:16;96292.03;;;-1.18;100.00
11038;BME280;5572;49.540;11.932;2023-01-27T07:17:52;96282.34;;;-1.24;100.00
11038;BME280;5572;49.540;11.932;2023-01-27T07:20:24;96295.28;;;-1.16;100.00
11038;BME280;5572;49.540;11.932;2023-01-27T07:22:55;96290.88;;;-1.22;100.00
11038;BME280;5572;49.540;11.932;2023-01-27T07:25:23;96291.91;;;-1.23;100.00
11038;BME280;5572;49.540;11.932;2023-01-27T07:27:51;96299.19;;;-1.19;100.00
11038;BME280;5572;49.540;11.932;2023-01-27T07:30:18;96310.38;;;-1.17;100.00
11038;BME280;5572;49.540;11.932;2023-01-27T07:32:46;96316.28;;;-1.15;100.00
11038;BME280;5572;49.540;11.932;2023-01-27T07:35:17;96313.63;;;-1.15;100.00
11038;BME280;5572;49.540;11.932;2023-01-27T07:37:45;96311.19;;;-1.16;100.00
11038;BME280;5572;49.540;11.932;2023-01-27T07:40:13;96310.06;;;-1.09;100.00
11038;BME280;5572;49.540;11.932;2023-01-27T07:42:41;96313.53;;;-1.08;100.00
11038;BME280;5572;49.540;11.932;2023-01-27T07:45:08;96314.94;;;-1.06;100.00
11038;BME280;5572;49.540;11.932;2023-01-27T07:47:39;96300.50;;;-1.10;100.00
11038;BME280;5572;49.540;11.932;2023-01-27T07:50:09;96304.19;;;-1.11;100.00
11038;BME280;5572;49.540;11.932;2023-01-27T07:52:37;96315.88;;;-1.00;100.00
11038;BME280;5572;49.540;11.932;2023-01-27T07:55:04;96316.91;;;-1.01;100.00
11038;BME280;5572;49.540;11.932;2023-01-27T07:57:38;96305.56;;;-1.08;100.00
11038;BME280;5572;49.540;11.932;2023-01-27T08:00:08;96300.13;;;-1.13;100.00
11038;BME280;5572;49.540;11.932;2023-01-27T08:02:39;96301.28;;;-1.09;100.00
11038;BME280;5572;49.540;11.932;2023-01-27T08:05:07;96309.53;;;-0.99;100.00
11038;BME280;5572;49.540;11.932;2023-01-27T08:07:37;96301.69;;;-1.06;100.00
11038;BME280;5572;49.540;11.932;2023-01-27T08:10:08;96294.69;;;-1.00;100.00
11038;BME280;5572;49.540;11.932;2023-01-27T08:12:42;96294.34;;;-0.92;100.00
11038;BME280;5572;49.540;11.932;2023-01-27T08:15:17;96278.19;;;-1.02;100.00
11038;BME280;5572;49.540;11.932;2023-01-27T08:17:57;96264.69;;;-1.01;100.00
11038;BME280;5572;49.540;11.932;2023-01-27T08:20:31;96251.97;;;-1.10;100.00
11038;BME280;5572;49.540;11.932;2023-01-27T08:23:01;96274.34;;;-0.77;100.00
11038;BME280;5572;49.540;11.932;2023-01-27T08:25:27;96250.81;;;-0.74;100.00
11038;BME280;5572;49.540;11.932;2023-01-27T08:28:00;96227.97;;;-0.86;100.00
11038;BME280;5572;49.540;11.932;2023-01-27T08:30:28;96220.34;;;-0.83;100.00
11038;BME280;5572;49.540;11.932;2023-01-27T08:32:56;96202.94;;;-0.79;100.00
11038;BME280;5572;49.540;11.932;2023-01-27T08:35:25;96204.91;;;-0.74;100.00
11038;BME280;5572;49.540;11.932;2023-01-27T08:37:52;96164.88;;;-0.84;100.00
11038;BME280;5572;49.540;11.932;2023-01-27T08:40:19;96163.06;;;-0.61;100.00
11038;BME280;5572;49.540;11.932;2023-01-27T08:42:49;96148.72;;;-0.60;100.00
11038;BME280;5572;49.540;11.932;2023-01-27T08:45:16;96106.88;;;-0.58;100.00
11038;BME280;5572;49.540;11.932;2023-01-27T08:47:47;96066.50;;;-0.83;100.00
11038;BME280;5572;49.540;11.932;2023-01-27T08:50:14;96043.66;;;-0.72;100.00
11038;BME280;5572;49.540;11.932;2023-01-27T08:52:41;96035.59;;;-0.66;100.00
11038;BME280;5572;49.540;11.932;2023-01-27T08:55:08;96039.69;;;-0.35;100.00
11038;BME280;5572;49.540;11.932;2023-01-27T08:57:34;96007.28;;;-0.37;100.00
11038;BME280;5572;49.540;11.932;2023-01-27T09:00:01;96003.16;;;-0.56;100.00
11038;BME280;5572;49.540;11.932;2023-01-27T09:02:30;96036.63;;;-0.55;100.00
11038;BME280;5572;49.540;11.932;2023-01-27T09:04:59;96045.47;;;-0.50;100.00
11038;BME280;5572;49.540;11.932;2023-01-27T09:07:26;96066.59;;;-0.55;100.00
11038;BME280;5572;49.540;11.932;2023-01-27T09:09:53;96075.13;;;-0.64;100.00
11038;BME280;5572;49.540;11.932;2023-01-27T09:12:19;96087.94;;;-0.50;100.00
11038;BME280;5572;49.540;11.932;2023-01-27T09:14:46;96098.81;;;-0.63;100.00
11038;BME280;5572;49.540;11.932;2023-01-27T09:17:13;96112.50;;;-0.54;100.00
11038;BME280;5572;49.540;11.932;2023-01-27T09:19:44;96115.31;;;-0.61;100.00
11038;BME280;5572;49.540;11.932;2023-01-27T09:22:12;96117.22;;;-0.33;100.00
11038;BME280;5572;49.540;11.932;2023-01-27T09:24:38;96118.16;;;-0.16;100.00
11038;BME280;5572;49.540;11.932;2023-01-27T09:27:05;96111.91;;;-0.10;100.00
11038;BME280;5572;49.540;11.932;2023-01-27T09:29:31;96126.63;;;0.08;100.00
11038;BME280;5572;49.540;11.932;2023-01-27T09:32:01;96140.56;;;-0.24;100.00
11038;BME280;5572;49.540;11.932;2023-01-27T09:34:27;96147.13;;;-0.15;100.00
11038;BME280;5572;49.540;11.932;2023-01-27T09:36:57;96147.22;;;0.01;100.00
11038;BME280;5572;49.540;11.932;2023-01-27T09:39:28;96158.53;;;-0.14;100.00
11038;BME280;5572;49.540;11.932;2023-01-27T09:42:11;96180.72;;;-0.20;100.00
11038;BME280;5572;49.540;11.932;2023-01-27T09:45:05;96177.81;;;0.04;100.00
11038;BME280;5572;49.540;11.932;2023-01-27T09:47:43;96176.88;;;-0.02;100.00
11038;BME280;5572;49.540;11.932;2023-01-27T09:50:33;96206.59;;;-0.27;100.00
11038;BME280;5572;49.540;11.932;2023-01-27T09:53:15;96192.25;;;-0.03;100.00
11038;BME280;5572;49.540;11.932;2023-01-27T09:55:57;96196.63;;;0.02;100.00
11038;BME280;5572;49.540;11.932;2023-01-27T09:58:39;96183.56;;;0.12;100.00
11038;BME280;5572;49.540;11.932;2023-01-27T10:01:19;96193.16;;;0.13;100.00
11038;BME280;5572;49.540;11.932;2023-01-27T10:04:06;96186.31;;;0.29;100.00
11038;BME280;5572;49.540;11.932;2023-01-27T10:07:18;96203.47;;;-0.13;100.00
11038;BME280;5572;49.540;11.932;2023-01-27T10:10:05;96203.69;;;-0.14;100.00
11038;BME280;5572;49.540;11.932;2023-01-27T10:12:48;96198.00;;;0.05;100.00
11038;BME280;5572;49.540;11.932;2023-01-27T10:15:27;96209.56;;;0.10;100.00
11038;BME280;5572;49.540;11.932;2023-01-27T10:18:06;96196.06;;;0.00;100.00
11038;BME280;5572;49.540;11.932;2023-01-27T10:20:44;96191.97;;;0.21;100.00
11038;BME280;5572;49.540;11.932;2023-01-27T10:23:24;96203.44;;;0.10;100.00
11038;BME280;5572;49.540;11.932;2023-01-27T10:26:12;96224.91;;;0.08;100.00
11038;BME280;5572;49.540;11.932;2023-01-27T10:28:48;96220.06;;;0.17;100.00
11038;BME280;5572;49.540;11.932;2023-01-27T10:31:21;96224.56;;;0.28;100.00
11038;BME280;5572;49.540;11.932;2023-01-27T10:33:52;96236.66;;;0.35;100.00
11038;BME280;5572;49.540;11.932;2023-01-27T10:36:25;96223.53;;;0.29;100.00
11038;BME280;5572;49.540;11.932;2023-01-27T10:39:02;96229.63;;;0.29;100.00
11038;BME280;5572;49.540;11.932;2023-01-27T10:41:42;96235.09;;;0.11;100.00
11038;BME280;5572;49.540;11.932;2023-01-27T10:44:29;96247.69;;;0.04;100.00
11038;BME280;5572;49.540;11.932;2023-01-27T10:47:08;96242.38;;;0.04;100.00
11038;BME280;5572;49.540;11.932;2023-01-27T10:49:39;96238.78;;;-0.01;100.00
11038;BME280;5572;49.540;11.932;2023-01-27T10:52:12;96249.41;;;0.10;100.00
11038;BME280;5572;49.540;11.932;2023-01-27T10:54:43;96238.75;;;0.22;100.00
11038;BME280;5572;49.540;11.932;2023-01-27T10:57:16;96256.91;;;0.25;100.00
11038;BME280;5572;49.540;11.932;2023-01-27T10:59:51;96258.66;;;0.08;100.00
11038;BME280;5572;49.540;11.932;2023-01-27T11:02:34;96260.94;;;0.27;100.00
11038;BME280;5572;49.540;11.932;2023-01-27T11:05:07;96262.94;;;0.09;100.00
11038;BME280;5572;49.540;11.932;2023-01-27T11:07:45;96273.19;;;0.05;100.00
11038;BME280;5572;49.540;11.932;2023-01-27T11:10:16;96281.38;;;0.15;100.00
11038;BME280;5572;49.540;11.932;2023-01-27T11:12:46;96265.91;;;0.24;100.00
11038;BME280;5572;49.540;11.932;2023-01-27T11:15:19;96283.25;;;0.15;100.00
11038;BME280;5572;49.540;11.932;2023-01-27T11:17:51;96281.84;;;0.35;100.00
11038;BME280;5572;49.540;11.932;2023-01-27T11:20:26;96287.53;;;0.39;100.00
11038;BME280;5572;49.540;11.932;2023-01-27T11:22:57;96283.00;;;0.39;100.00
11038;BME280;5572;49.540;11.932;2023-01-27T11:25:27;96282.97;;;0.62;100.00
11038;BME280;5572;49.540;11.932;2023-01-27T11:28:03;96292.81;;;0.27;100.00
11038;BME280;5572;49.540;11.932;2023-01-27T11:30:41;96305.44;;;0.09;100.00
11038;BME280;5572;49.540;11.932;2023-01-27T11:33:17;96296.03;;;0.41;100.00
11038;BME280;5572;49.540;11.932;2023-01-27T11:35:44;96299.66;;;0.35;100.00
11038;BME280;5572;49.540;11.932;2023-01-27T11:38:13;96304.16;;;0.46;100.00
11038;BME280;5572;49.540;11.932;2023-01-27T11:40:43;96299.28;;;0.54;100.00
11038;BME280;5572;49.540;11.932;2023-01-27T11:43:14;96299.38;;;0.59;100.00
11038;BME280;5572;49.540;11.932;2023-01-27T11:45:43;96298.94;;;0.62;100.00
11038;BME280;5572;49.540;11.932;2023-01-27T11:48:15;96305.16;;;0.56;100.00
11038;BME280;5572;49.540;11.932;2023-01-27T11:50:43;96305.38;;;0.66;100.00
11038;BME280;5572;49.540;11.932;2023-01-27T11:53:15;96308.06;;;0.55;100.00
11038;BME280;5572;49.540;11.932;2023-01-27T11:55:46;96331.19;;;0.43;100.00
11038;BME280;5572;49.540;11.932;2023-01-27T11:58:20;96336.28;;;0.56;100.00
11038;BME280;5572;49.540;11.932;2023-01-27T12:00:53;96320.19;;;0.62;100.00
11038;BME280;5572;49.540;11.932;2023-01-27T12:03:25;96328.97;;;0.74;100.00
11038;BME280;5572;49.540;11.932;2023-01-27T12:05:55;96324.78;;;0.78;100.00
11038;BME280;5572;49.540;11.932;2023-01-27T12:08:36;96336.88;;;0.97;100.00
11038;BME280;5572;49.540;11.932;2023-01-27T12:11:21;96335.25;;;0.96;100.00
11038;BME280;5572;49.540;11.932;2023-01-27T12:13:53;96362.22;;;0.99;100.00
11038;BME280;5572;49.540;11.932;2023-01-27T12:16:25;96373.75;;;1.16;100.00
11038;BME280;5572;49.540;11.932;2023-01-27T12:18:55;96368.84;;;1.36;100.00
11038;BME280;5572;49.540;11.932;2023-01-27T12:21:34;96384.09;;;1.41;100.00
11038;BME280;5572;49.540;11.932;2023-01-27T12:24:04;96394.03;;;0.94;100.00
11038;BME280;5572;49.540;11.932;2023-01-27T12:26:35;96403.31;;;0.92;100.00
11038;BME280;5572;49.540;11.932;2023-01-27T12:29:05;96400.72;;;1.08;100.00
11038;BME280;5572;49.540;11.932;2023-01-27T12:31:43;96421.59;;;0.88;100.00
11038;BME280;5572;49.540;11.932;2023-01-27T12:34:23;96434.63;;;0.90;100.00
11038;BME280;5572;49.540;11.932;2023-01-27T12:36:51;96444.00;;;0.81;100.00
11038;BME280;5572;49.540;11.932;2023-01-27T12:39:32;96456.03;;;0.72;100.00
11038;BME280;5572;49.540;11.932;2023-01-27T12:42:03;96455.44;;;0.70;100.00
11038;BME280;5572;49.540;11.932;2023-01-27T12:44:40;96465.38;;;0.86;100.00
11038;BME280;5572;49.540;11.932;2023-01-27T12:47:20;96470.94;;;0.84;100.00
11038;BME280;5572;49.540;11.932;2023-01-27T12:49:49;96472.34;;;0.87;100.00
11038;BME280;5572;49.540;11.932;2023-01-27T12:52:20;96456.38;;;0.98;100.00
11038;BME280;5572;49.540;11.932;2023-01-27T12:54:47;96477.66;;;0.87;100.00
11038;BME280;5572;49.540;11.932;2023-01-27T12:57:19;96512.81;;;0.89;100.00
11038;BME280;5572;49.540;11.932;2023-01-27T12:59:50;96504.72;;;0.73;100.00
11038;BME280;5572;49.540;11.932;2023-01-27T13:02:24;96505.97;;;0.70;100.00
11038;BME280;5572;49.540;11.932;2023-01-27T13:04:54;96525.28;;;0.54;100.00
11038;BME280;5572;49.540;11.932;2023-01-27T13:07:24;96529.31;;;0.57;100.00
11038;BME280;5572;49.540;11.932;2023-01-27T13:09:55;96513.00;;;0.53;100.00
11038;BME280;5572;49.540;11.932;2023-01-27T13:12:24;96527.34;;;0.64;100.00